Terminal Aerodrome Forecast
Issued by NWS

Home | Current Version | Previous Version | Text Only | Print | Product List | Glossary On
Versions: 1 2 3 4 5 6 7 8 9 10 11 12 13 14 15 16 17 18 19
000
FTUS43 KEAX 190000 CCA
TAFSTJ
TAF COR
KSTJ 190020Z 1900/1924 08003KT P6SM OVC009
     FM190400 VRB03KT 2SM BR OVC007
      TEMPO 1908/1912 1SM BR OVC005
     FM191600 04004KT P6SM OVC010=

USA.gov is the U.S. government's official web portal to all federal, state and local government web resources and services.